createdAt,value
2019-04-07T00:01:15.854Z,50.07
2019-04-07T00:03:45.466Z,49.23
2019-04-07T00:06:14.743Z,46.67
2019-04-07T00:08:44.473Z,44.23
2019-04-07T00:11:14.270Z,46.67
2019-04-07T00:13:43.394Z,46.03
2019-04-07T00:16:12.634Z,48.07
2019-04-07T00:18:41.922Z,47.57
2019-04-07T00:21:11.300Z,45.13
2019-04-07T00:23:41.741Z,46.23
2019-04-07T00:26:11.433Z,50.43
2019-04-07T00:28:40.838Z,49.13
2019-04-07T00:31:10.529Z,48.47
2019-04-07T00:33:40.093Z,47.20
2019-04-07T00:36:09.582Z,51.37
2019-04-07T00:38:39.389Z,52.87
2019-04-07T00:41:08.809Z,68.47
2019-04-07T00:43:39.505Z,49.23
2019-04-07T00:46:08.850Z,49.40
2019-04-07T00:48:38.583Z,43.47
2019-04-07T00:51:07.848Z,42.70
2019-04-07T00:53:37.525Z,43.90
2019-04-07T00:56:06.695Z,45.53
2019-04-07T00:58:36.879Z,44.70
2019-04-07T01:01:07.520Z,47.13
2019-04-07T01:03:36.770Z,54.23
2019-04-07T01:06:06.637Z,48.60
2019-04-07T01:08:36.097Z,46.60
2019-04-07T01:11:06.305Z,43.63
2019-04-07T01:13:36.269Z,48.23
2019-04-07T01:16:25.169Z,43.43
2019-04-07T01:18:54.377Z,47.70
2019-04-07T01:21:23.752Z,47.57
2019-04-07T01:23:53.291Z,49.10
2019-04-07T01:26:22.763Z,50.53
2019-04-07T01:28:54.304Z,42.33
2019-04-07T01:31:23.310Z,42.53
2019-04-07T01:33:52.377Z,45.17
2019-04-07T01:36:21.805Z,44.33
2019-04-07T01:38:51.168Z,41.40
2019-04-07T01:41:38.275Z,37.90
2019-04-07T01:44:15.998Z,39.17
2019-04-07T01:46:58.164Z,37.30
2019-04-07T01:49:45.419Z,37.70
2019-04-07T01:52:21.094Z,39.27
2019-04-07T01:54:56.895Z,36.17
2019-04-07T01:57:46.556Z,34.73
2019-04-07T02:00:44.445Z,36.30
2019-04-07T02:03:35.781Z,37.40
2019-04-07T02:06:22.923Z,35.83
2019-04-07T02:09:00.830Z,39.00
2019-04-07T02:11:49.436Z,39.43
2019-04-07T02:14:50.011Z,37.80
2019-04-07T02:17:25.225Z,38.67
2019-04-07T02:20:04.557Z,35.63
2019-04-07T02:22:46.551Z,34.90
2019-04-07T02:25:46.928Z,36.47
2019-04-07T02:28:39.130Z,37.90
2019-04-07T02:31:33.631Z,36.87
2019-04-07T02:34:25.748Z,36.20
2019-04-07T02:37:17.481Z,36.67
2019-04-07T02:40:17.919Z,35.87
2019-04-07T02:42:52.612Z,34.47
2019-04-07T02:45:56.641Z,37.70
2019-04-07T02:48:52.297Z,34.13
2019-04-07T02:51:38.267Z,32.43
2019-04-07T02:54:20.642Z,37.67
2019-04-07T02:57:02.445Z,36.87
2019-04-07T02:59:44.368Z,38.67
2019-04-07T03:02:33.490Z,34.13
2019-04-07T03:05:29.555Z,34.70
2019-04-07T03:08:13.835Z,33.93
2019-04-07T03:11:00.608Z,36.50
2019-04-07T03:13:48.912Z,35.93
2019-04-07T03:16:36.050Z,32.83
2019-04-07T03:19:29.967Z,31.17
2019-04-07T03:22:26.591Z,32.30
2019-04-07T03:25:09.917Z,38.57
2019-04-07T03:27:51.558Z,32.23
2019-04-07T03:30:47.953Z,32.60
2019-04-07T03:33:26.177Z,31.40
2019-04-07T03:36:04.029Z,34.37
2019-04-07T03:38:46.244Z,32.83
2019-04-07T03:41:39.924Z,31.07
2019-04-07T03:44:37.762Z,30.50
2019-04-07T03:47:14.240Z,33.47
2019-04-07T03:50:07.061Z,29.80
2019-04-07T03:52:48.949Z,31.13
2019-04-07T03:55:28.241Z,31.67
2019-04-07T03:58:10.752Z,33.87
2019-04-07T04:01:33.309Z,32.40
2019-04-07T04:04:28.621Z,35.37
2019-04-07T04:07:29.375Z,30.23
2019-04-07T04:10:12.645Z,32.07
2019-04-07T04:13:05.163Z,32.43
2019-04-07T04:16:02.990Z,28.40
2019-04-07T04:18:32.187Z,29.13
2019-04-07T04:21:01.527Z,28.50
2019-04-07T04:23:31.643Z,24.77
2019-04-07T04:26:00.945Z,31.20
2019-04-07T04:28:30.672Z,28.17
2019-04-07T04:30:59.950Z,30.83
2019-04-07T04:33:29.622Z,31.00
2019-04-07T04:35:59.095Z,29.20
2019-04-07T04:38:29.765Z,28.77
2019-04-07T04:40:58.995Z,30.17
2019-04-07T04:43:28.236Z,29.63
2019-04-07T04:45:57.487Z,24.30
2019-04-07T04:48:26.573Z,30.77
2019-04-07T04:50:56.092Z,30.67
2019-04-07T04:53:25.666Z,30.67
2019-04-07T04:55:55.694Z,28.03
2019-04-07T04:58:24.866Z,28.53
2019-04-07T05:00:54.006Z,26.00
2019-04-07T05:03:23.250Z,31.00
2019-04-07T05:05:52.451Z,29.70
2019-04-07T05:08:21.758Z,28.90
2019-04-07T05:10:51.039Z,31.47
2019-04-07T05:13:20.158Z,29.37
2019-04-07T05:15:50.201Z,29.53
2019-04-07T05:18:20.028Z,30.40
2019-04-07T05:20:49.080Z,30.80
2019-04-07T05:23:18.156Z,29.50
2019-04-07T05:25:48.099Z,29.47
2019-04-07T05:28:17.342Z,27.17
2019-04-07T05:30:46.906Z,27.97
2019-04-07T05:33:16.568Z,29.97
2019-04-07T05:35:45.698Z,27.40
2019-04-07T05:38:15.021Z,31.23
2019-04-07T05:40:47.484Z,30.67
2019-04-07T05:43:17.342Z,26.83
2019-04-07T05:45:46.849Z,24.70
2019-04-07T05:48:19.300Z,26.90
2019-04-07T05:50:47.301Z,27.13
2019-04-07T05:53:16.954Z,25.73
2019-04-07T05:55:46.850Z,28.87
2019-04-07T05:58:16.999Z,27.17
2019-04-07T06:00:48.003Z,27.63
2019-04-07T06:03:17.798Z,24.10
2019-04-07T06:05:48.261Z,24.83
2019-04-07T06:08:27.647Z,23.80
2019-04-07T06:10:51.069Z,25.93
2019-04-07T06:13:20.557Z,23.93
2019-04-07T06:15:51.918Z,23.97
2019-04-07T06:18:20.356Z,26.87
2019-04-07T06:20:50.368Z,23.57
2019-04-07T06:23:22.085Z,22.67
2019-04-07T06:25:51.087Z,23.70
2019-04-07T06:28:20.710Z,21.50
2019-04-07T06:30:50.816Z,25.13
2019-04-07T06:33:19.988Z,24.70
2019-04-07T06:35:53.914Z,26.77
2019-04-07T06:38:31.802Z,24.33
2019-04-07T06:40:57.094Z,24.57
2019-04-07T06:43:23.881Z,22.57
2019-04-07T06:46:04.854Z,24.40
2019-04-07T06:48:39.044Z,24.13
2019-04-07T06:51:31.097Z,26.43
2019-04-07T06:54:25.435Z,24.03
2019-04-07T06:57:12.335Z,23.83
2019-04-07T07:00:17.434Z,24.73
2019-04-07T07:03:02.343Z,25.10
2019-04-07T07:05:51.506Z,22.63
2019-04-07T07:08:28.399Z,24.23
2019-04-07T07:11:31.633Z,22.70
2019-04-07T07:14:30.063Z,24.33
2019-04-07T07:16:57.118Z,23.97
2019-04-07T07:19:42.316Z,27.20
2019-04-07T07:22:20.265Z,23.83
2019-04-07T07:24:50.308Z,23.50
2019-04-07T07:27:21.779Z,27.20
2019-04-07T07:30:00.148Z,25.27
2019-04-07T07:32:35.546Z,23.60
2019-04-07T07:35:04.207Z,22.20
2019-04-07T07:37:34.089Z,26.30
2019-04-07T07:40:06.596Z,21.90
2019-04-07T07:42:35.505Z,22.67
2019-04-07T07:45:08.239Z,25.77
2019-04-07T07:47:37.303Z,25.17
2019-04-07T07:50:07.893Z,25.03
2019-04-07T07:52:39.922Z,25.33
2019-04-07T07:55:11.983Z,29.33
2019-04-07T07:57:44.549Z,24.13
2019-04-07T08:00:15.639Z,21.97
2019-04-07T08:02:51.677Z,24.57
2019-04-07T08:05:20.446Z,23.33
2019-04-07T08:07:55.123Z,22.27
2019-04-07T08:10:26.926Z,25.30
2019-04-07T08:12:57.446Z,22.70
2019-04-07T08:15:32.298Z,21.43
2019-04-07T08:18:20.742Z,22.17
2019-04-07T08:20:50.079Z,21.17
2019-04-07T08:23:21.082Z,19.20
2019-04-07T08:25:53.486Z,18.90
2019-04-07T08:28:21.636Z,21.47
2019-04-07T08:30:51.644Z,19.87
2019-04-07T08:33:21.098Z,19.97
2019-04-07T08:35:52.093Z,21.47
2019-04-07T08:38:25.571Z,17.77
2019-04-07T08:40:54.269Z,21.53
2019-04-07T08:43:28.140Z,21.17
2019-04-07T08:45:57.945Z,18.80
2019-04-07T08:48:27.929Z,22.33
2019-04-07T08:50:59.837Z,17.47
2019-04-07T08:53:28.351Z,18.93
2019-04-07T08:55:57.530Z,20.83
2019-04-07T08:58:28.995Z,20.20
2019-04-07T09:00:58.551Z,18.37
2019-04-07T09:03:28.126Z,20.63
2019-04-07T09:05:57.764Z,19.57
2019-04-07T09:08:27.393Z,15.67
2019-04-07T09:11:04.579Z,21.10
2019-04-07T09:13:34.457Z,16.43
2019-04-07T09:16:23.549Z,19.57
2019-04-07T09:19:15.079Z,18.27
2019-04-07T09:21:53.619Z,19.23
2019-04-07T09:24:41.632Z,17.83
2019-04-07T09:27:23.113Z,18.03
2019-04-07T09:29:58.170Z,15.87
2019-04-07T09:32:56.831Z,15.00
2019-04-07T09:35:39.365Z,18.97
2019-04-07T09:38:27.389Z,17.87
2019-04-07T09:41:17.236Z,16.73
2019-04-07T09:44:05.580Z,23.63
2019-04-07T09:47:04.294Z,16.07
2019-04-07T09:49:56.315Z,17.40
2019-04-07T09:52:37.755Z,18.07
2019-04-07T09:55:35.522Z,18.50
2019-04-07T09:58:43.644Z,17.63
2019-04-07T10:01:35.252Z,18.20
2019-04-07T10:04:42.235Z,16.17
2019-04-07T10:07:42.326Z,14.83
2019-04-07T10:10:21.538Z,15.00
2019-04-07T10:13:24.731Z,14.10
2019-04-07T10:16:07.663Z,13.93
2019-04-07T10:18:54.552Z,11.47
2019-04-07T10:21:42.915Z,12.60
2019-04-07T10:24:21.225Z,12.10
2019-04-07T10:27:04.735Z,11.63
2019-04-07T10:29:43.940Z,10.70
2019-04-07T10:32:30.884Z,9.10
2019-04-07T10:35:25.441Z,10.33
2019-04-07T10:38:20.038Z,7.83
2019-04-07T10:41:05.647Z,7.80
2019-04-07T10:43:48.751Z,6.27
2019-04-07T10:46:30.335Z,6.10
2019-04-07T10:49:19.416Z,5.33
2019-04-07T10:52:03.400Z,6.60
2019-04-07T10:54:57.319Z,12.47
2019-04-07T10:57:39.931Z,12.20
2019-04-07T11:00:27.778Z,6.07
2019-04-07T11:03:14.651Z,9.70
2019-04-07T11:05:57.070Z,5.03
2019-04-07T11:08:35.643Z,5.87
2019-04-07T11:11:33.398Z,5.23
2019-04-07T11:14:30.961Z,5.50
2019-04-07T11:17:19.394Z,4.93
2019-04-07T11:20:08.145Z,6.63
2019-04-07T11:22:54.986Z,6.27
2019-04-07T11:25:42.795Z,4.63
2019-04-07T11:28:22.553Z,4.07
2019-04-07T11:31:01.359Z,7.43
2019-04-07T11:33:48.889Z,5.63
2019-04-07T11:36:29.840Z,4.23
2019-04-07T11:39:11.943Z,3.63
2019-04-07T11:41:59.342Z,4.80
2019-04-07T11:45:08.207Z,4.17
2019-04-07T11:47:45.903Z,4.37
2019-04-07T11:50:32.783Z,5.20
2019-04-07T11:53:25.837Z,4.20
2019-04-07T11:56:11.516Z,4.43
2019-04-07T11:58:59.098Z,7.90
2019-04-07T12:01:43.666Z,4.43
2019-04-07T12:04:45.359Z,4.87
2019-04-07T12:07:26.960Z,4.33
2019-04-07T12:10:05.639Z,5.67
2019-04-07T12:12:59.208Z,5.70
2019-04-07T12:15:46.312Z,4.30
2019-04-07T12:18:34.160Z,4.20
2019-04-07T12:21:24.006Z,6.10
2019-04-07T12:24:10.592Z,4.67
2019-04-07T12:27:08.932Z,3.80
2019-04-07T12:29:56.860Z,5.03
2019-04-07T12:32:35.901Z,4.73
2019-04-07T12:35:33.044Z,4.80
2019-04-07T12:38:13.941Z,5.07
2019-04-07T12:41:11.486Z,8.13
2019-04-07T12:43:36.302Z,4.37
2019-04-07T12:46:17.728Z,5.03
2019-04-07T12:49:06.787Z,3.80
2019-04-07T12:51:43.008Z,5.17
2019-04-07T12:54:30.414Z,4.73
2019-04-07T12:57:22.023Z,4.53
2019-04-07T13:00:02.537Z,5.40
2019-04-07T13:03:09.158Z,4.10
2019-04-07T13:05:48.699Z,5.53
2019-04-07T13:08:36.607Z,4.10
2019-04-07T13:11:33.935Z,3.60
2019-04-07T13:14:24.598Z,4.57
2019-04-07T13:17:16.063Z,4.50
2019-04-07T13:19:57.548Z,3.93
2019-04-07T13:22:36.611Z,5.20
2019-04-07T13:25:20.137Z,4.10
2019-04-07T13:28:08.140Z,6.00
2019-04-07T13:30:56.572Z,4.13
2019-04-07T13:33:38.089Z,6.77
2019-04-07T13:36:18.012Z,4.20
2019-04-07T13:39:08.742Z,4.37
2019-04-07T13:42:05.593Z,4.10
2019-04-07T13:45:02.544Z,5.80
2019-04-07T13:47:48.539Z,3.87
2019-04-07T13:50:37.130Z,3.70
2019-04-07T13:53:27.872Z,4.30
2019-04-07T13:56:34.315Z,5.00
2019-04-07T13:59:21.485Z,4.53
2019-04-07T14:02:08.500Z,4.40
2019-04-07T14:04:42.389Z,4.30
2019-04-07T14:07:25.235Z,3.97
2019-04-07T14:10:12.508Z,3.97
2019-04-07T14:12:56.648Z,5.03
2019-04-07T14:15:38.128Z,4.73
2019-04-07T14:18:25.579Z,10.33
2019-04-07T14:21:11.573Z,3.83
2019-04-07T14:24:09.234Z,4.50
2019-04-07T14:26:46.741Z,4.33
2019-04-07T14:29:40.610Z,4.57
2019-04-07T14:32:28.423Z,5.50
2019-04-07T14:35:26.913Z,4.30
2019-04-07T14:38:11.148Z,5.30
2019-04-07T14:40:59.950Z,5.40
2019-04-07T14:43:47.518Z,5.07
2019-04-07T14:46:54.095Z,4.80
2019-04-07T14:49:51.557Z,5.53
2019-04-07T14:52:34.265Z,5.60
2019-04-07T14:55:37.902Z,5.67
2019-04-07T14:58:32.469Z,4.57
2019-04-07T15:01:23.675Z,4.40
2019-04-07T15:03:53.124Z,4.80
2019-04-07T15:06:22.888Z,4.70
2019-04-07T15:09:06.756Z,6.83
2019-04-07T15:11:59.848Z,5.07
2019-04-07T15:14:31.382Z,4.70
2019-04-07T15:17:00.624Z,4.97
2019-04-07T15:19:31.028Z,6.37
2019-04-07T15:22:02.319Z,5.33
2019-04-07T15:24:35.407Z,8.13
2019-04-07T15:27:05.950Z,5.70
2019-04-07T15:29:38.636Z,5.00
2019-04-07T15:32:07.224Z,7.50
2019-04-07T15:34:39.559Z,9.53
2019-04-07T15:37:07.871Z,5.70
2019-04-07T15:39:38.044Z,7.30
2019-04-07T15:42:09.446Z,9.83
2019-04-07T15:44:39.686Z,7.27
2019-04-07T15:47:09.893Z,6.63
2019-04-07T15:49:40.857Z,7.03
2019-04-07T15:52:10.193Z,6.30
2019-04-07T15:54:40.426Z,5.80
2019-04-07T15:57:10.052Z,6.80
2019-04-07T15:59:39.690Z,10.50
2019-04-07T16:02:11.235Z,6.53
2019-04-07T16:04:40.803Z,4.90
2019-04-07T16:07:10.323Z,7.07
2019-04-07T16:09:51.014Z,8.43
2019-04-07T16:12:11.351Z,7.77
2019-04-07T16:14:44.923Z,5.77
2019-04-07T16:17:12.117Z,5.70
2019-04-07T16:19:44.426Z,5.60
2019-04-07T16:22:14.144Z,5.57
2019-04-07T16:24:43.331Z,7.80
2019-04-07T16:27:12.377Z,5.93
2019-04-07T16:29:41.433Z,7.53
2019-04-07T16:32:11.322Z,6.40
2019-04-07T16:34:42.377Z,6.07
2019-04-07T16:37:11.707Z,6.83
2019-04-07T16:39:41.389Z,7.40
2019-04-07T16:42:10.888Z,7.93
2019-04-07T16:44:43.257Z,9.03
2019-04-07T16:47:19.296Z,8.00
2019-04-07T16:49:46.678Z,6.83
2019-04-07T16:52:13.551Z,7.17
2019-04-07T16:54:44.585Z,10.27
2019-04-07T16:57:15.335Z,7.07
2019-04-07T16:59:44.735Z,8.40
2019-04-07T17:02:15.590Z,6.67
2019-04-07T17:04:45.128Z,8.30
2019-04-07T17:07:18.142Z,6.90
2019-04-07T17:09:49.243Z,7.97
2019-04-07T17:12:18.471Z,6.67
2019-04-07T17:14:47.506Z,7.13
2019-04-07T17:17:20.786Z,7.97
2019-04-07T17:19:47.997Z,8.40
2019-04-07T17:22:18.123Z,7.87
2019-04-07T17:24:47.831Z,7.40
2019-04-07T17:27:18.260Z,7.57
2019-04-07T17:29:52.573Z,8.07
2019-04-07T17:32:19.923Z,8.43
2019-04-07T17:34:49.823Z,9.20
2019-04-07T17:37:18.961Z,9.33
2019-04-07T17:40:00.266Z,12.03
2019-04-07T17:42:30.313Z,8.83
2019-04-07T17:45:28.511Z,9.00
2019-04-07T17:48:15.722Z,7.07
2019-04-07T17:51:01.066Z,9.07
2019-04-07T17:53:47.874Z,8.03
2019-04-07T17:56:30.915Z,7.70
2019-04-07T17:59:14.190Z,8.50
2019-04-07T18:01:56.831Z,8.70
2019-04-07T18:04:50.128Z,12.17
2019-04-07T18:07:36.143Z,9.33
2019-04-07T18:10:23.793Z,10.20
2019-04-07T18:13:11.984Z,14.07
2019-04-07T18:16:03.455Z,10.73
2019-04-07T18:19:01.601Z,9.83
2019-04-07T18:21:52.469Z,9.87
2019-04-07T18:24:30.088Z,8.90
2019-04-07T18:27:34.158Z,10.03
2019-04-07T18:30:22.016Z,10.30
2019-04-07T18:33:17.625Z,13.13
2019-04-07T18:36:05.121Z,11.67
2019-04-07T18:38:56.008Z,12.03
2019-04-07T18:42:10.280Z,13.97
2019-04-07T18:45:02.796Z,12.53
2019-04-07T18:47:43.110Z,11.10
2019-04-07T18:50:28.747Z,14.33
2019-04-07T18:53:16.695Z,9.53
2019-04-07T18:55:59.117Z,10.47
2019-04-07T18:58:53.561Z,11.47
2019-04-07T19:02:00.224Z,10.47
2019-04-07T19:04:38.785Z,11.37
2019-04-07T19:07:28.428Z,10.03
2019-04-07T19:10:13.041Z,11.77
2019-04-07T19:12:47.682Z,11.67
2019-04-07T19:15:51.272Z,9.50
2019-04-07T19:18:40.938Z,13.47
2019-04-07T19:21:48.446Z,10.63
2019-04-07T19:24:31.431Z,11.73
2019-04-07T19:27:17.430Z,12.37
2019-04-07T19:30:01.755Z,12.10
2019-04-07T19:32:52.670Z,9.80
2019-04-07T19:35:41.850Z,13.60
2019-04-07T19:38:27.539Z,10.97
2019-04-07T19:41:23.232Z,12.47
2019-04-07T19:44:01.899Z,11.47
2019-04-07T19:46:43.677Z,12.27
2019-04-07T19:49:41.576Z,11.83
2019-04-07T19:52:36.258Z,12.60
2019-04-07T19:55:24.912Z,13.37
2019-04-07T19:58:04.075Z,11.03
2019-04-07T20:00:54.308Z,13.73
2019-04-07T20:03:40.498Z,15.27
2019-04-07T20:06:31.981Z,12.83
2019-04-07T20:09:23.637Z,14.20
2019-04-07T20:12:25.019Z,13.67
2019-04-07T20:15:16.076Z,15.33
2019-04-07T20:17:56.515Z,13.47
2019-04-07T20:20:33.796Z,12.70
2019-04-07T20:23:41.442Z,13.10
2019-04-07T20:26:28.847Z,12.80
2019-04-07T20:29:20.739Z,16.67
2019-04-07T20:32:09.709Z,13.23
2019-04-07T20:34:48.700Z,15.93
2019-04-07T20:37:26.676Z,13.23
2019-04-07T20:40:14.619Z,13.27
2019-04-07T20:43:07.894Z,13.20
2019-04-07T20:46:11.062Z,13.83
2019-04-07T20:49:07.292Z,15.37
2019-04-07T20:51:50.615Z,13.57
2019-04-07T20:54:27.100Z,12.83
2019-04-07T20:57:17.653Z,14.67
2019-04-07T21:00:12.314Z,14.60
2019-04-07T21:03:14.469Z,14.83
2019-04-07T21:05:53.466Z,15.77
2019-04-07T21:08:45.525Z,15.30
2019-04-07T21:11:30.003Z,14.17
2019-04-07T21:14:28.106Z,17.27
2019-04-07T21:17:17.427Z,15.17
2019-04-07T21:20:08.374Z,16.60
2019-04-07T21:22:56.102Z,14.97
2019-04-07T21:25:35.108Z,16.07
2019-04-07T21:28:12.647Z,15.80
2019-04-07T21:31:01.287Z,17.13
2019-04-07T21:33:50.804Z,13.50
2019-04-07T21:36:42.146Z,15.00
2019-04-07T21:39:39.610Z,17.97
2019-04-07T21:42:34.497Z,16.67
2019-04-07T21:45:31.559Z,18.13
2019-04-07T21:48:05.380Z,12.90
2019-04-07T21:51:03.204Z,17.27
2019-04-07T21:53:51.743Z,15.77
2019-04-07T21:56:44.912Z,16.63
2019-04-07T21:59:46.482Z,18.97
2019-04-07T22:02:43.069Z,15.20
2019-04-07T22:05:33.237Z,17.57
2019-04-07T22:08:13.143Z,16.30
2019-04-07T22:10:38.136Z,15.87
2019-04-07T22:13:08.320Z,16.77
2019-04-07T22:15:45.951Z,13.37
2019-04-07T22:18:09.858Z,16.53
2019-04-07T22:20:39.366Z,18.27
2019-04-07T22:23:09.917Z,16.37
2019-04-07T22:25:51.060Z,14.90
2019-04-07T22:28:20.784Z,16.13
2019-04-07T22:30:50.871Z,16.63
2019-04-07T22:33:23.025Z,13.70
2019-04-07T22:35:51.293Z,14.87
2019-04-07T22:38:23.067Z,15.87
2019-04-07T22:40:52.085Z,15.10
2019-04-07T22:43:21.346Z,16.13
2019-04-07T22:45:59.273Z,13.50
2019-04-07T22:48:25.246Z,16.17
2019-04-07T22:50:52.555Z,13.53
2019-04-07T22:53:24.988Z,14.60
2019-04-07T22:55:52.812Z,17.67
2019-04-07T22:58:22.240Z,15.27
2019-04-07T23:00:52.216Z,17.07
2019-04-07T23:03:21.424Z,14.00
2019-04-07T23:05:51.331Z,15.73
2019-04-07T23:08:20.929Z,17.80
2019-04-07T23:10:50.830Z,13.93
2019-04-07T23:13:20.481Z,15.53
2019-04-07T23:15:50.343Z,15.83
2019-04-07T23:18:27.580Z,16.70
2019-04-07T23:20:59.917Z,15.97
2019-04-07T23:23:30.850Z,15.37
2019-04-07T23:26:01.916Z,17.07
2019-04-07T23:28:30.951Z,18.07
2019-04-07T23:31:03.260Z,18.93
2019-04-07T23:33:32.297Z,16.90
2019-04-07T23:36:01.782Z,17.07
2019-04-07T23:38:33.644Z,15.90
2019-04-07T23:41:03.243Z,22.43
2019-04-07T23:43:33.434Z,27.90
2019-04-07T23:46:03.008Z,22.90
2019-04-07T23:48:32.626Z,18.80
2019-04-07T23:51:02.044Z,19.77
2019-04-07T23:54:07.672Z,18.67
2019-04-07T23:56:39.351Z,17.27
2019-04-07T23:59:09.076Z,18.60
